Relevés horaires Pilatus (Suisse)


Relevés horaires à Pilatus - Mercredi 07 Juill. 2010
Heure UTC1 Température [°C] Vent [km/h] Hum. [%] Pres.4 [hPa] Visi. [Km] Nébu. [octa] Préc.5 [mm] Cond.
2m. Res. Ros. Dir.2 Vit. Moy. Raf.3
23:00 13.3 12.2 3.8 O 13.0 13.0 18.5 53 850(0.5/3h) -- -- -- --
22:00 13.3 12.7 -1.3 OSO 9.3 13.0 14.8 36 850(0.6/3h) -- -- -- --
21:00 13.2 12.9 -6.5 O 7.4 9.3 16.7 25 850(0.5/3h) -- -- -- --
20:00 13.0 12.6 -0.8 OSO 7.4 9.3 14.8 38 850(0.2/3h) -- -- -- --
19:00 12.3 11.8 8.2 SO 7.4 9.3 14.8 76 850(0.0/3h) -- -- -- --
18:00 12.8 12.4 7.6 SSO 7.4 9.3 16.7 71 850(-0.1/3h) -- -- -- --
17:00 13.0 12.3 7.3 SO 9.3 9.3 16.7 68 850(-0.1/3h) -- -- -- --
16:00 12.6 12.6 8.3 SSO 5.6 5.6 14.8 75 850(-0.2/3h) -- -- -- --
15:00 13.1 13.1 8.5 SSO 3.7 3.7 14.8 74 850(-0.3/3h) -- -- -- --
14:00 13.3 13.3 9.0 ESE 3.7 3.7 14.8 75 850(-0.1/3h) -- -- -- --
13:00 12.9 12.9 9.6 ESE 1.9 3.7 13.0 80 850(0.1/3h) -- -- -- --
12:00 10.8 10.8 9.2 E 1.9 14.8 20.4 90 850(0.5/3h) -- -- -- --
11:00 11.1 11.1 8.0 ENE 1.9 3.7 13.0 81 850(0.6/3h) -- -- -- --
10:00 10.6 10.6 7.3 ENE 1.9 1.9 9.3 80 850(0.9/3h) -- -- -- --
09:00 12.1 12.1 1.8 ENE 1.9 11.1 18.5 49 850(0.9/3h) -- -- -- --
08:00 10.1 10.1 7.2 E 1.9 9.3 11.1 82 850(0.9/3h) -- -- -- --
07:00 10.3 10.3 -0.1 N 3.7 9.3 11.1 48 850(0.6/3h) -- -- -- --
06:00 8.9 7.9 7.0 NO 7.4 20.4 27.8 88 850(0.1/3h) -- -- -- --
05:00 8.0 7.3 7.1 ONO 5.6 11.1 18.5 94 850(-0.3/3h) -- -- -- --
04:00 7.3 5.5 6.7 OSO 9.3 14.8 20.4 96 850(-1.0/3h) -- -- -- --
03:00 7.5 5.8 6.5 OSO 9.3 16.7 20.4 93 850(-1.0/3h) -- -- -- --
02:00 7.3 6 6.6 SO 7.4 11.1 16.7 95 850(-0.9/3h) -- -- -- --
01:00 7.3 6 6.5 OSO 7.4 14.8 16.7 95 850(-0.5/3h) -- -- -- --
00:00 7.6 5.2 6.2 SO 13.0 20.4 27.8 91 850(-0.3/3h) -- -- -- --

1 Coordinated Universal Time. Actuellement il est 08:00 locale et 06:00 UTC.

2 Le vent souffle depuis la direction indiquée vers la direction oposée.

3 Les rafales max. sont disponible 40 min après l'heure du relevé.

4 Pour les stations d'altitude (plus de 600m) le géopotentiel du niveau le plus proche de la pression obligatoire est indiqué.

5 Les stations disposant d'un diffuseur peuvent indiquer "trace". Cela signifie que des précipitations ont touchés le sol mais que la quantité est inférieure à 0.1 mm.

Copyright

Les données affichées sur cette page sont la propriété exclusive de Météo Suisse.

Récapitulatif de la journée
Température [°C] Vent [km/h] Ensoleillement4 [h] Precipitations totale5 [mm] Pression [Hpa]
Min1 Max.2 Moy.3 Max. Min Max.
6.2 16.5 10.4 27.8 11 h 36 min 0 850.0 850.0

1 Température minimale relevée entre 18:00 UTC la veille et 18:00 UTC le jour donné.

2 Température maximale relevée entre 06:00 UTC le jour donné et 06:00 UTC le lendemain.

3 Vent moyen de la journée basé sur les relevés horaires.

4 Ensoleillement en heures relevé entre 06:00 UTC la veille et 06:00 UTC le jour donné.

5 Précipitations totales tombées entre 06:00 UTC la jour donné et 06:00 UTC le lendemain.

Graphiques horaires